Time;durP1;ratioP1;P1;durP2;ratioP2;P2;SDS_P1;SDS_P2;PMS_P1;PMS_P2;Temp;Humidity;BMP_temperature;BMP_pressure;BME280_temperature;BME280_humidity;BME280_pressure;Samples;Min_cycle;Max_cycle;Signal;HPM_P1;HPM_P2
2023/08/13 00:02:06;;;;;;;11.80;6.60;;;;;;;13.90;100.00;101513.14;109957;1239;73653;-68
2023/08/13 00:04:35;;;;;;;9.60;6.70;;;;;;;13.96;100.00;101514.61;109871;1241;62433;-67
2023/08/13 00:07:04;;;;;;;10.70;6.60;;;;;;;14.23;100.00;101510.83;109867;1241;58302;-67
2023/08/13 00:09:33;;;;;;;12.90;6.70;;;;;;;14.39;100.00;101513.13;109892;1242;75023;-66
2023/08/13 00:12:03;;;;;;;12.50;6.70;;;;;;;14.39;100.00;101515.23;109898;1239;61923;-66
2023/08/13 00:14:32;;;;;;;10.80;6.50;;;;;;;14.25;100.00;101513.49;110009;1240;70418;-67
2023/08/13 00:17:01;;;;;;;11.00;7.20;;;;;;;14.14;100.00;101512.95;109775;1242;73719;-67
2023/08/13 00:19:30;;;;;;;10.90;6.20;;;;;;;14.06;100.00;101517.92;109937;1241;57825;-67
2023/08/13 00:21:59;;;;;;;16.80;6.90;;;;;;;14.04;100.00;101513.99;109944;1241;59496;-66
2023/08/13 00:24:35;;;;;;;10.20;6.90;;;;;;;14.03;100.00;101514.57;109875;1239;64255;-66
2023/08/13 00:27:04;;;;;;;11.90;6.40;;;;;;;13.99;100.00;101514.77;109935;1241;61454;-66
2023/08/13 00:29:33;;;;;;;12.20;7.30;;;;;;;13.93;100.00;101511.73;109944;1241;59766;-66
2023/08/13 00:32:02;;;;;;;13.70;7.20;;;;;;;13.86;100.00;101514.98;110023;1241;62229;-66
2023/08/13 00:34:31;;;;;;;10.20;6.80;;;;;;;13.77;100.00;101511.26;109798;1242;58336;-67
2023/08/13 00:37:00;;;;;;;9.60;6.30;;;;;;;13.72;100.00;101510.39;109831;1241;59772;-67
2023/08/13 00:39:28;;;;;;;13.10;7.50;;;;;;;13.68;100.00;101509.13;110022;1241;74035;-67
2023/08/13 00:41:58;;;;;;;15.10;7.90;;;;;;;13.65;100.00;101506.25;109889;1242;71576;-67
2023/08/13 00:44:26;;;;;;;11.80;7.40;;;;;;;13.64;100.00;101509.65;109880;1239;70669;-66
2023/08/13 00:46:55;;;;;;;9.20;7.20;;;;;;;13.53;100.00;101505.47;109776;1239;62614;-67
2023/08/13 00:49:24;;;;;;;13.00;7.10;;;;;;;13.47;100.00;101503.29;109920;1241;58402;-66
2023/08/13 00:51:54;;;;;;;10.50;7.20;;;;;;;13.38;100.00;101504.69;109902;1242;59277;-66
2023/08/13 00:54:23;;;;;;;10.90;6.60;;;;;;;13.41;100.00;101499.74;109888;1240;73743;-66
2023/08/13 00:56:53;;;;;;;9.80;7.00;;;;;;;13.64;100.00;101500.33;109962;1241;71737;-66
2023/08/13 00:59:22;;;;;;;9.50;6.70;;;;;;;13.67;100.00;101498.05;109896;1241;69601;-66
2023/08/13 01:01:51;;;;;;;11.10;8.00;;;;;;;13.62;100.00;101498.73;109812;1239;63612;-66
2023/08/13 01:04:20;;;;;;;9.30;6.70;;;;;;;13.64;100.00;101499.61;109894;1241;57808;-65
2023/08/13 01:07:16;;;;;;;11.40;7.50;;;;;;;13.76;100.00;101500.48;109950;1241;58377;-66
2023/08/13 01:09:51;;;;;;;11.30;7.60;;;;;;;14.02;100.00;101502.41;109997;1239;63821;-66
2023/08/13 01:12:58;;;;;;;10.30;7.20;;;;;;;13.93;100.00;101496.45;109786;1240;61507;-66
2023/08/13 01:15:36;;;;;;;12.80;7.70;;;;;;;13.74;100.00;101495.04;109974;1239;70364;-65
2023/08/13 01:18:09;;;;;;;10.50;7.40;;;;;;;13.58;100.00;101489.60;109786;1241;74598;-66
2023/08/13 01:20:41;;;;;;;11.30;7.30;;;;;;;13.45;100.00;101492.98;109645;1242;58325;-66
2023/08/13 01:23:10;;;;;;;15.50;7.50;;;;;;;13.33;100.00;101496.30;109768;1241;57775;-66
2023/08/13 01:25:45;;;;;;;12.30;7.30;;;;;;;13.21;100.00;101493.75;109991;1241;62963;-65
2023/08/13 01:28:28;;;;;;;14.20;7.70;;;;;;;13.12;100.00;101488.98;109892;1241;60746;-65
2023/08/13 01:31:12;;;;;;;9.50;6.80;;;;;;;13.08;100.00;101492.20;109837;1241;59970;-65
2023/08/13 01:33:45;;;;;;;10.40;7.30;;;;;;;13.01;100.00;101494.88;109836;1241;63120;-65
2023/08/13 01:36:17;;;;;;;11.80;7.70;;;;;;;12.87;100.00;101489.48;109705;1240;61882;-64
2023/08/13 01:38:47;;;;;;;12.60;7.30;;;;;;;12.89;100.00;101492.34;109795;1242;61454;-65
2023/08/13 01:41:16;;;;;;;9.50;6.60;;;;;;;12.83;100.00;101492.81;109611;1239;74873;-66
2023/08/13 01:43:44;;;;;;;9.00;7.00;;;;;;;12.81;100.00;101491.30;109761;1241;72328;-65
2023/08/13 01:46:14;;;;;;;11.30;7.50;;;;;;;12.89;100.00;101491.80;109816;1240;60945;-66
2023/08/13 01:48:42;;;;;;;9.50;6.90;;;;;;;12.97;100.00;101488.10;109843;1241;72999;-65
2023/08/13 01:51:11;;;;;;;9.20;6.90;;;;;;;13.00;100.00;101486.54;109630;1242;57755;-65
2023/08/13 01:53:40;;;;;;;12.30;7.30;;;;;;;13.10;100.00;101487.73;109697;1242;57727;-65
2023/08/13 01:56:09;;;;;;;11.60;7.70;;;;;;;13.44;100.00;101491.78;109731;1240;74083;-66
2023/08/13 01:58:37;;;;;;;11.30;7.80;;;;;;;13.56;100.00;101490.38;109693;1241;71291;-65
2023/08/13 02:01:06;;;;;;;11.70;7.10;;;;;;;13.52;100.00;101489.79;109832;1241;60241;-65
2023/08/13 02:03:35;;;;;;;12.60;7.30;;;;;;;13.44;100.00;101491.12;109932;1240;63624;-68
2023/08/13 02:06:04;;;;;;;10.30;7.00;;;;;;;13.53;100.00;101485.38;109818;1242;62099;-68
2023/08/13 02:08:32;;;;;;;10.60;6.90;;;;;;;13.67;100.00;101489.80;109835;1241;61006;-68
2023/08/13 02:11:01;;;;;;;10.10;7.70;;;;;;;13.89;100.00;101487.79;109841;1241;64241;-68
2023/08/13 02:13:30;;;;;;;12.10;6.60;;;;;;;13.97;100.00;101476.89;109719;1243;61468;-67
2023/08/13 02:16:03;;;;;;;11.10;7.00;;;;;;;13.99;100.00;101490.36;109999;1241;70294;-67
2023/08/13 02:18:32;;;;;;;9.20;6.80;;;;;;;13.98;100.00;101492.72;109613;1241;63547;-67
2023/08/13 02:21:02;;;;;;;10.80;6.70;;;;;;;14.03;100.00;101489.91;109835;1242;58378;-67
2023/08/13 02:23:31;;;;;;;12.60;7.40;;;;;;;14.27;100.00;101487.92;109858;1240;60176;-66
2023/08/13 02:25:59;;;;;;;11.80;7.00;;;;;;;14.44;100.00;101487.34;109828;1241;73965;-68
2023/08/13 02:28:29;;;;;;;14.20;7.90;;;;;;;14.37;100.00;101490.52;109797;1241;70844;-67
2023/08/13 02:30:58;;;;;;;10.80;7.00;;;;;;;14.38;100.00;101490.08;109978;1239;60271;-67
2023/08/13 02:33:28;;;;;;;12.30;7.10;;;;;;;14.29;100.00;101493.20;109826;1240;73783;-67
2023/08/13 02:35:57;;;;;;;10.30;7.40;;;;;;;14.15;100.00;101492.36;109743;1243;58628;-65
2023/08/13 02:38:26;;;;;;;9.00;7.10;;;;;;;14.09;100.00;101491.27;109874;1242;58267;-65
2023/08/13 02:40:55;;;;;;;14.90;7.20;;;;;;;14.11;100.00;101493.54;109844;1241;74181;-66
2023/08/13 02:43:30;;;;;;;9.20;6.90;;;;;;;14.10;100.00;101489.78;109834;1240;72328;-64
2023/08/13 02:45:59;;;;;;;10.10;7.20;;;;;;;14.05;100.00;101493.60;109965;1240;70229;-65
2023/08/13 02:48:29;;;;;;;11.10;6.90;;;;;;;13.97;100.00;101493.84;109816;1241;63968;-64
2023/08/13 02:50:58;;;;;;;12.10;7.10;;;;;;;13.87;100.00;101496.56;109879;1241;57782;-65
2023/08/13 02:53:27;;;;;;;10.30;6.40;;;;;;;13.81;100.00;101499.42;109770;1241;60850;-64
2023/08/13 02:55:55;;;;;;;10.60;7.20;;;;;;;13.71;100.00;101498.63;109730;1240;74803;-66
2023/08/13 02:58:24;;;;;;;10.50;7.10;;;;;;;13.63;100.00;101498.50;109898;1239;61951;-65
2023/08/13 03:00:53;;;;;;;9.90;6.70;;;;;;;13.77;100.00;101499.73;109863;1240;59187;-67
2023/08/13 03:03:22;;;;;;;10.00;6.70;;;;;;;13.74;100.00;101501.37;109654;1242;73743;-67
2023/08/13 03:05:54;;;;;;;11.90;6.80;;;;;;;13.58;100.00;101500.77;109782;1241;62373;-68
2023/08/13 03:08:22;;;;;;;10.40;6.70;;;;;;;13.47;100.00;101504.02;109935;1240;57745;-68
2023/08/13 03:10:51;;;;;;;11.60;7.20;;;;;;;13.46;100.00;101499.70;109957;1241;63540;-67
2023/08/13 03:13:20;;;;;;;10.20;7.30;;;;;;;13.38;100.00;101503.45;109826;1241;61504;-67
2023/08/13 03:15:49;;;;;;;9.20;6.80;;;;;;;13.27;100.00;101504.73;109833;1242;59876;-67
2023/08/13 03:18:18;;;;;;;9.40;7.00;;;;;;;13.27;100.00;101501.02;109890;1241;73836;-67
2023/08/13 03:20:49;;;;;;;12.50;7.30;;;;;;;13.55;100.00;101497.70;109874;1240;62286;-67
2023/08/13 03:23:18;;;;;;;10.60;7.30;;;;;;;13.68;100.00;101500.54;109704;1239;57801;-67
2023/08/13 03:25:47;;;;;;;11.40;6.70;;;;;;;13.57;100.00;101505.23;109855;1242;63541;-67
2023/08/13 03:28:16;;;;;;;9.90;6.80;;;;;;;13.44;100.00;101506.68;109829;1241;61439;-68
2023/08/13 03:30:45;;;;;;;7.20;6.40;;;;;;;13.35;100.00;101505.58;109702;1244;59790;-67
2023/08/13 03:33:14;;;;;;;10.00;7.10;;;;;;;13.45;100.00;101505.71;109814;1239;73885;-68
2023/08/13 03:35:44;;;;;;;11.20;7.10;;;;;;;13.60;100.00;101508.50;109929;1241;63357;-67
2023/08/13 03:38:13;;;;;;;8.90;6.60;;;;;;;13.50;100.00;101514.98;109778;1242;57756;-64
2023/08/13 03:40:43;;;;;;;10.00;7.50;;;;;;;13.54;100.00;101515.91;109714;1240;73226;-66
2023/08/13 03:43:11;;;;;;;10.40;7.50;;;;;;;13.63;100.00;101512.33;109926;1240;72452;-67
2023/08/13 03:45:42;;;;;;;12.80;7.30;;;;;;;13.77;100.00;101508.14;109993;1241;59445;-65
2023/08/13 03:48:11;;;;;;;14.00;7.30;;;;;;;13.93;100.00;101513.28;109842;1240;63013;-66
2023/08/13 03:50:44;;;;;;;10.30;7.30;;;;;;;13.90;100.00;101518.21;109878;1242;57965;-65
2023/08/13 03:53:13;;;;;;;9.90;6.60;;;;;;;13.90;100.00;101521.37;109760;1244;58272;-65
2023/08/13 03:55:42;;;;;;;11.70;7.90;;;;;;;13.82;100.00;101517.79;110042;1241;63531;-66
2023/08/13 03:58:11;;;;;;;12.40;7.40;;;;;;;13.82;100.00;101517.89;109792;1241;61464;-65
2023/08/13 04:00:39;;;;;;;10.30;7.50;;;;;;;13.95;100.00;101519.23;109865;1241;69530;-65
2023/08/13 04:03:09;;;;;;;13.80;7.50;;;;;;;13.96;100.00;101519.71;109874;1240;63380;-65
2023/08/13 04:05:53;;;;;;;11.80;7.40;;;;;;;14.03;100.00;101514.98;109852;1242;62015;-65
2023/08/13 04:08:22;;;;;;;10.80;6.50;;;;;;;14.07;100.00;101517.97;109845;1240;58448;-65
2023/08/13 04:10:52;;;;;;;19.00;8.00;;;;;;;14.03;100.00;101515.15;109982;1241;63578;-65
2023/08/13 04:13:21;;;;;;;13.70;8.30;;;;;;;13.95;100.00;101514.67;109737;1244;61449;-64
2023/08/13 04:15:50;;;;;;;12.20;7.80;;;;;;;13.90;100.00;101514.54;109948;1241;70466;-65
2023/08/13 04:18:19;;;;;;;14.10;7.40;;;;;;;13.86;100.00;101513.45;109800;1242;62604;-65
2023/08/13 04:20:49;;;;;;;12.40;7.80;;;;;;;13.86;100.00;101513.81;109766;1242;58306;-64
2023/08/13 04:23:18;;;;;;;9.90;7.30;;;;;;;13.92;100.00;101512.81;109627;1241;57728;-64
2023/08/13 04:25:47;;;;;;;13.40;7.30;;;;;;;14.00;100.00;101511.84;109616;1240;74335;-64
2023/08/13 04:28:15;;;;;;;11.60;8.10;;;;;;;14.13;100.00;101516.54;109703;1240;71790;-65
2023/08/13 04:30:45;;;;;;;10.70;7.50;;;;;;;14.28;100.00;101517.61;109674;1241;70769;-66
2023/08/13 04:33:15;;;;;;;14.40;8.30;;;;;;;14.43;100.00;101517.73;109548;1244;62983;-67
2023/08/13 04:35:44;;;;;;;12.80;7.70;;;;;;;14.66;100.00;101518.63;109490;1242;62737;-65
2023/08/13 04:38:13;;;;;;;10.20;7.30;;;;;;;14.84;100.00;101519.86;109571;1244;57817;-65
2023/08/13 04:40:50;;;;;;;11.50;7.40;;;;;;;15.02;100.00;101517.44;109579;1241;65945;-65
2023/08/13 04:43:19;;;;;;;8.80;7.70;;;;;;;15.17;100.00;101520.30;109554;1241;72593;-68
2023/08/13 04:45:48;;;;;;;11.90;8.60;;;;;;;15.36;100.00;101507.54;109593;1241;70874;-66
2023/08/13 04:48:44;;;;;;;13.20;8.00;;;;;;;15.53;100.00;101518.08;109461;1245;63610;-65
2023/08/13 04:51:19;;;;;;;12.90;7.60;;;;;;;15.84;100.00;101521.41;109622;1242;62842;-64
2023/08/13 04:53:48;;;;;;;11.80;7.30;;;;;;;15.84;100.00;101523.38;109630;1241;57882;-65
2023/08/13 04:56:18;;;;;;;11.60;7.70;;;;;;;15.79;100.00;101522.58;109591;1240;73947;-66
2023/08/13 04:58:46;;;;;;;11.10;7.80;;;;;;;15.88;100.00;101532.50;109701;1241;72393;-65
2023/08/13 05:01:15;;;;;;;14.40;8.30;;;;;;;16.00;100.00;101532.24;109694;1240;70215;-66
2023/08/13 05:03:48;;;;;;;13.60;8.00;;;;;;;16.08;100.00;101530.89;109706;1241;73763;-67
2023/08/13 05:06:19;;;;;;;12.80;7.80;;;;;;;16.11;100.00;101533.55;109694;1242;63078;-68
2023/08/13 05:08:48;;;;;;;11.20;7.40;;;;;;;16.19;100.00;101537.53;109685;1241;61152;-65
2023/08/13 05:11:17;;;;;;;11.90;7.30;;;;;;;16.21;100.00;101541.26;109723;1244;64106;-66
2023/08/13 05:13:47;;;;;;;9.30;7.70;;;;;;;16.19;100.00;101536.45;109730;1241;72188;-67
2023/08/13 05:16:15;;;;;;;12.20;7.90;;;;;;;16.23;100.00;101541.11;109753;1240;69836;-67
2023/08/13 05:18:44;;;;;;;12.30;7.70;;;;;;;16.29;100.00;101540.93;109686;1241;74108;-65
2023/08/13 05:21:15;;;;;;;12.70;7.50;;;;;;;16.36;100.00;101542.11;109749;1242;63093;-68
2023/08/13 05:23:44;;;;;;;13.10;7.90;;;;;;;16.42;100.00;101538.44;109714;1241;61685;-68
2023/08/13 05:26:13;;;;;;;13.40;7.80;;;;;;;16.46;100.00;101543.15;109708;1240;73992;-68
2023/08/13 05:28:42;;;;;;;10.60;7.50;;;;;;;16.55;100.00;101544.32;109618;1244;61955;-67
2023/08/13 05:31:11;;;;;;;11.10;7.00;;;;;;;16.63;100.00;101539.83;109734;1241;68733;-67
2023/08/13 05:33:40;;;;;;;12.90;7.50;;;;;;;16.69;100.00;101538.23;109610;1241;72852;-66
2023/08/13 05:36:08;;;;;;;15.40;7.50;;;;;;;16.82;100.00;101543.09;109592;1244;63332;-65
2023/08/13 05:38:37;;;;;;;10.90;7.50;;;;;;;16.96;100.00;101544.05;109736;1242;59516;-67
2023/08/13 05:41:07;;;;;;;15.10;7.60;;;;;;;17.07;100.00;101542.56;109742;1243;63590;-66
2023/08/13 05:43:38;;;;;;;13.30;8.10;;;;;;;17.24;100.00;101543.20;109612;1242;61679;-67
2023/08/13 05:46:07;;;;;;;9.60;7.10;;;;;;;17.45;100.00;101543.80;109705;1240;70281;-67
2023/08/13 05:48:36;;;;;;;11.40;6.60;;;;;;;17.62;100.00;101544.37;109698;1241;73367;-66
2023/08/13 05:51:05;;;;;;;11.70;6.60;;;;;;;17.81;100.00;101545.06;109685;1242;58112;-67
2023/08/13 05:53:34;;;;;;;10.00;7.00;;;;;;;17.96;100.00;101544.74;109834;1241;58442;-64
2023/08/13 05:56:03;;;;;;;9.00;5.80;;;;;;;18.06;100.00;101543.63;109812;1240;73613;-67
2023/08/13 05:58:31;;;;;;;11.20;6.40;;;;;;;18.20;100.00;101547.50;109632;1243;71728;-67
2023/08/13 06:01:00;;;;;;;11.00;6.40;;;;;;;18.36;100.00;101549.54;109626;1241;59794;-67
2023/08/13 06:03:29;;;;;;;11.40;6.00;;;;;;;18.54;100.00;101545.26;109715;1243;63885;-67
2023/08/13 06:05:58;;;;;;;10.60;6.40;;;;;;;18.64;100.00;101547.64;109832;1241;62909;-67
2023/08/13 06:08:26;;;;;;;9.60;6.00;;;;;;;18.76;100.00;101545.11;109712;1241;58315;-67
2023/08/13 06:10:55;;;;;;;13.90;6.50;;;;;;;18.92;100.00;101550.48;109835;1241;64109;-68
2023/08/13 06:13:24;;;;;;;8.80;5.60;;;;;;;19.10;100.00;101555.56;109830;1241;61444;-67
2023/08/13 06:15:52;;;;;;;8.30;5.10;;;;;;;19.30;100.00;101557.29;109720;1241;70381;-67
2023/08/13 06:18:24;;;;;;;10.70;5.50;;;;;;;19.41;100.00;101556.42;109845;1242;64911;-67
2023/08/13 06:20:52;;;;;;;9.40;5.60;;;;;;;19.53;100.00;101555.40;109974;1241;62622;-67
2023/08/13 06:23:22;;;;;;;9.30;5.40;;;;;;;19.62;100.00;101558.11;109972;1239;60019;-67
2023/08/13 06:25:51;;;;;;;10.70;6.20;;;;;;;19.75;100.00;101559.51;109967;1241;64415;-66
2023/08/13 06:28:19;;;;;;;6.20;5.10;;;;;;;19.89;100.00;101559.86;109799;1239;71884;-67
2023/08/13 06:30:49;;;;;;;9.40;5.30;;;;;;;20.03;100.00;101558.65;109938;1238;59812;-66
2023/08/13 06:33:17;;;;;;;10.20;5.50;;;;;;;20.17;100.00;101558.58;109933;1240;72824;-67
2023/08/13 06:35:47;;;;;;;8.20;5.40;;;;;;;20.31;100.00;101559.23;109659;1241;338057;-66
2023/08/13 06:38:16;;;;;;;7.20;5.10;;;;;;;20.42;100.00;101552.35;109799;1239;60397;-67
2023/08/13 06:40:45;;;;;;;7.50;4.90;;;;;;;20.69;100.00;101558.09;109836;1240;74750;-63
2023/08/13 06:43:14;;;;;;;8.10;4.90;;;;;;;20.78;100.00;101555.90;109985;1239;72902;-68
2023/08/13 06:45:43;;;;;;;6.30;4.50;;;;;;;20.90;100.00;101555.36;109853;1241;59423;-67
2023/08/13 06:48:12;;;;;;;7.70;4.10;;;;;;;21.05;100.00;101557.03;109776;1241;73220;-67
2023/08/13 06:50:40;;;;;;;8.20;4.80;;;;;;;21.17;100.00;101555.41;109746;1241;61455;-66
2023/08/13 06:53:09;;;;;;;7.10;4.30;;;;;;;21.28;99.93;101555.71;109731;1240;58315;-71
2023/08/13 06:55:38;;;;;;;6.60;4.00;;;;;;;21.38;99.93;101554.70;109925;1240;63482;-73
2023/08/13 06:58:06;;;;;;;6.20;4.10;;;;;;;21.54;99.78;101553.50;109815;1242;71194;-63
2023/08/13 07:00:37;;;;;;;9.20;4.20;;;;;;;21.73;96.83;101549.79;109918;1239;59382;-67
2023/08/13 07:03:08;;;;;;;;;;;;;;;21.82;94.10;101552.25;109928;1239;63038;-65
2023/08/13 07:05:40;;;;;;;5.50;3.40;;;;;;;21.85;93.91;101551.40;109917;1239;57732;-65
2023/08/13 07:08:09;;;;;;;7.90;4.40;;;;;;;22.07;92.28;101552.83;109783;1241;60139;-65
2023/08/13 07:10:39;;;;;;;8.40;4.50;;;;;;;22.16;91.97;101547.09;109618;1241;64057;-66
2023/08/13 07:13:08;;;;;;;12.50;6.80;;;;;;;22.21;91.73;101549.72;109812;1240;71509;-65
2023/08/13 07:15:36;;;;;;;8.00;4.00;;;;;;;22.31;89.38;101547.58;109932;1241;70747;-65
2023/08/13 07:18:05;;;;;;;5.20;3.50;;;;;;;22.38;85.12;101542.90;109955;1239;63583;-66
2023/08/13 07:20:34;;;;;;;6.60;3.80;;;;;;;22.58;86.41;101545.29;109954;1239;58291;-66
2023/08/13 07:23:04;;;;;;;4.20;3.40;;;;;;;22.75;86.16;101543.59;109858;1239;58377;-65
2023/08/13 07:25:35;;;;;;;7.30;4.20;;;;;;;22.93;82.13;101543.23;109848;1239;63727;-66
2023/08/13 07:28:07;;;;;;;8.50;4.10;;;;;;;23.05;81.71;101544.94;109936;1240;72088;-66
2023/08/13 07:30:36;;;;;;;5.10;3.30;;;;;;;23.12;80.33;101542.02;109885;1240;60153;-65
2023/08/13 07:33:05;;;;;;;8.20;3.80;;;;;;;23.24;78.82;101542.79;109964;1240;73654;-66
2023/08/13 07:35:34;;;;;;;18.80;12.80;;;;;;;23.32;78.14;101542.41;109931;1241;60558;-65
2023/08/13 07:38:02;;;;;;;4.70;3.70;;;;;;;23.36;77.76;101542.63;109891;1239;60725;-65
2023/08/13 07:40:33;;;;;;;8.50;3.50;;;;;;;23.52;79.25;101541.42;109752;1239;64767;-65
2023/08/13 07:43:02;;;;;;;6.50;3.30;;;;;;;23.69;76.76;101542.19;109740;1240;60665;-65
2023/08/13 07:45:32;;;;;;;5.40;3.20;;;;;;;23.68;74.74;101540.16;109739;1240;69855;-65
2023/08/13 07:48:01;;;;;;;6.30;3.20;;;;;;;23.79;74.61;101537.04;109835;1241;62590;-65
2023/08/13 07:50:30;;;;;;;5.20;3.30;;;;;;;23.88;73.68;101535.90;109841;1242;57876;-70
2023/08/13 07:52:59;;;;;;;5.10;2.70;;;;;;;23.94;72.92;101535.02;109967;1241;58311;-64
2023/08/13 07:55:27;;;;;;;5.70;3.50;;;;;;;24.11;72.35;101531.28;109884;1240;66003;-65
2023/08/13 07:57:56;;;;;;;6.00;3.00;;;;;;;24.31;70.22;101526.79;109872;1240;61866;-65
2023/08/13 08:00:26;;;;;;;5.00;2.90;;;;;;;24.28;69.28;101528.59;109851;1241;58970;-69
2023/08/13 08:02:54;;;;;;;11.90;3.10;;;;;;;24.26;67.80;101524.63;109680;1239;64609;-67
2023/08/13 08:05:23;;;;;;;5.30;3.30;;;;;;;24.37;68.44;101518.21;109819;1239;60651;-65
2023/08/13 08:07:52;;;;;;;5.20;3.20;;;;;;;24.43;68.11;101518.39;109969;1241;58235;-65
2023/08/13 08:10:21;;;;;;;4.30;2.70;;;;;;;24.66;69.86;101517.69;109973;1240;63528;-65
2023/08/13 08:12:50;;;;;;;8.40;3.10;;;;;;;24.87;68.92;101514.25;109815;1241;70868;-65
2023/08/13 08:15:19;;;;;;;4.70;2.40;;;;;;;25.01;66.21;101510.00;109933;1239;70559;-64
2023/08/13 08:17:48;;;;;;;3.90;2.70;;;;;;;25.16;63.89;101510.20;109889;1239;74020;-66
2023/08/13 08:20:17;;;;;;;7.90;2.90;;;;;;;25.24;61.38;101511.21;109915;1239;58258;-66
2023/08/13 08:22:45;;;;;;;5.10;2.30;;;;;;;25.28;60.13;101508.88;109927;1239;61541;-64
2023/08/13 08:25:14;;;;;;;4.10;2.30;;;;;;;25.36;60.28;101510.77;109937;1239;64002;-66
2023/08/13 08:27:43;;;;;;;5.20;2.50;;;;;;;25.47;57.92;101512.98;109822;1241;61448;-67
2023/08/13 08:30:12;;;;;;;7.00;3.80;;;;;;;25.42;57.30;101511.40;109951;1239;60710;-68
2023/08/13 08:32:41;;;;;;;5.70;2.60;;;;;;;25.52;56.39;101509.99;109840;1239;73609;-66
2023/08/13 08:35:10;;;;;;;3.40;2.30;;;;;;;25.52;58.00;101509.79;109854;1239;61405;-65
2023/08/13 08:37:38;;;;;;;4.30;2.70;;;;;;;25.56;58.82;101506.08;109850;1239;58253;-66
2023/08/13 08:40:08;;;;;;;4.60;3.30;;;;;;;25.46;56.43;101499.89;109927;1239;63529;-66
2023/08/13 08:42:37;;;;;;;3.90;2.60;;;;;;;25.55;56.64;101497.92;109867;1239;63239;-66
2023/08/13 08:45:09;;;;;;;4.80;2.50;;;;;;;25.53;56.54;101493.13;109877;1241;68495;-66
2023/08/13 08:47:43;;;;;;;4.20;2.70;;;;;;;25.71;57.59;101489.48;109904;1241;72902;-67
2023/08/13 08:50:15;;;;;;;3.60;2.10;;;;;;;25.85;56.90;101487.70;109601;1242;57944;-68
2023/08/13 08:52:44;;;;;;;3.60;2.10;;;;;;;26.01;56.63;101484.52;109826;1239;61578;-68
2023/08/13 08:55:12;;;;;;;6.00;2.90;;;;;;;26.02;55.33;101479.69;109730;1239;74678;-71
2023/08/13 08:57:41;;;;;;;3.80;2.60;;;;;;;26.21;57.54;101478.96;109863;1239;61432;-66
2023/08/13 09:00:10;;;;;;;4.20;2.60;;;;;;;26.39;57.17;101482.86;109867;1239;59826;-69
2023/08/13 09:02:41;;;;;;;6.60;2.90;;;;;;;26.33;56.84;101484.46;109839;1239;63046;-69
2023/08/13 09:05:10;;;;;;;7.60;4.70;;;;;;;26.21;56.57;101480.00;109756;1241;58291;-69
2023/08/13 09:07:43;;;;;;;4.80;2.80;;;;;;;26.24;56.47;101475.20;109895;1239;60510;-68
2023/08/13 09:10:11;;;;;;;5.50;2.40;;;;;;;26.36;56.05;101470.88;109793;1240;65411;-68
2023/08/13 09:12:41;;;;;;;5.70;2.80;;;;;;;26.32;55.99;101470.96;109918;1239;62292;-72
2023/08/13 09:15:12;;;;;;;4.30;2.80;;;;;;;26.47;56.64;101463.96;109820;1239;60684;-69
2023/08/13 09:17:41;;;;;;;6.50;2.50;;;;;;;26.67;56.62;101468.93;109812;1240;63707;-69
2023/08/13 09:20:19;;;;;;;4.70;2.70;;;;;;;26.78;54.84;101468.16;109809;1241;57852;-70
2023/08/13 09:22:53;;;;;;;3.90;2.60;;;;;;;26.77;54.91;101469.64;109798;1239;61034;-69
2023/08/13 09:25:21;;;;;;;4.20;2.80;;;;;;;26.72;54.73;101472.38;109695;1240;65886;-70
2023/08/13 09:27:50;;;;;;;4.00;2.60;;;;;;;26.77;55.68;101467.09;109670;1239;61950;-69
2023/08/13 09:30:28;;;;;;;4.10;2.60;;;;;;;26.91;54.75;101467.27;109783;1241;59102;-70
2023/08/13 09:33:00;;;;;;;4.60;2.70;;;;;;;26.90;54.42;101463.80;109785;1239;62488;-69
2023/08/13 09:35:29;;;;;;;4.60;3.00;;;;;;;26.96;54.29;101463.95;109886;1239;58345;-69
2023/08/13 09:37:58;;;;;;;3.60;2.80;;;;;;;27.00;53.52;101464.45;109802;1240;58209;-69
2023/08/13 09:40:27;;;;;;;4.00;3.00;;;;;;;27.03;53.26;101461.21;109832;1240;65102;-68
2023/08/13 09:42:58;;;;;;;3.80;2.70;;;;;;;27.13;53.58;101458.83;109828;1241;72497;-71
2023/08/13 09:45:28;;;;;;;5.50;2.70;;;;;;;27.18;53.30;101456.55;109587;1241;69712;-71
2023/08/13 09:48:02;;;;;;;4.80;2.70;;;;;;;27.27;52.95;101457.48;109659;1242;63446;-72
2023/08/13 09:50:40;;;;;;;3.80;2.40;;;;;;;27.33;53.11;101450.48;109653;1241;58184;-71
2023/08/13 09:53:14;;;;;;;7.30;2.80;;;;;;;27.32;52.68;101448.73;109837;1239;58007;-71
2023/08/13 09:56:02;;;;;;;6.10;2.80;;;;;;;27.31;52.11;101449.90;109799;1240;63697;-69
2023/08/13 09:58:32;;;;;;;4.00;2.70;;;;;;;27.54;51.56;101449.43;109747;1240;62475;-69
2023/08/13 10:01:01;;;;;;;4.90;3.10;;;;;;;27.67;49.93;101452.52;109761;1241;59018;-70
2023/08/13 10:03:31;;;;;;;4.80;2.70;;;;;;;27.69;49.45;101452.20;109430;1240;72789;-70
2023/08/13 10:06:00;;;;;;;4.60;3.10;;;;;;;27.78;50.01;101448.15;109559;1244;58300;-71
2023/08/13 10:08:29;;;;;;;5.30;3.30;;;;;;;27.93;49.97;101445.67;109824;1239;57924;-70
2023/08/13 10:10:59;;;;;;;4.10;2.90;;;;;;;28.08;48.59;101444.99;109699;1241;63239;-71
2023/08/13 10:13:28;;;;;;;4.50;2.50;;;;;;;28.09;48.70;101440.78;109637;1241;61074;-69
2023/08/13 10:15:57;;;;;;;5.00;3.20;;;;;;;27.92;48.76;101434.47;109786;1239;70962;-71
2023/08/13 10:18:28;;;;;;;4.60;3.30;;;;;;;27.98;49.18;101433.98;109649;1242;73062;-72
2023/08/13 10:20:57;;;;;;;4.90;3.20;;;;;;;27.95;49.09;101431.83;109523;1241;60618;-71
2023/08/13 10:23:27;;;;;;;3.90;2.90;;;;;;;27.81;49.42;101426.14;109757;1239;61295;-71
2023/08/13 10:25:56;;;;;;;5.60;3.10;;;;;;;27.96;49.89;101427.54;109525;1240;74890;-70
2023/08/13 10:28:33;;;;;;;4.00;3.20;;;;;;;28.14;49.29;101424.52;109776;1239;62906;-69
2023/08/13 10:31:22;;;;;;;7.80;3.30;;;;;;;28.30;48.51;101424.10;109776;1239;71072;-69
2023/08/13 10:34:14;;;;;;;6.30;3.00;;;;;;;28.61;49.00;101424.17;109691;1239;73450;-69
2023/08/13 10:36:45;;;;;;;4.10;3.10;;;;;;;28.92;47.39;101419.63;109542;1243;60926;-69
2023/08/13 10:39:36;;;;;;;4.20;3.20;;;;;;;29.06;46.77;101422.28;109582;1240;60541;-67
2023/08/13 10:42:27;;;;;;;6.20;3.40;;;;;;;29.59;45.74;101419.14;109683;1241;73517;-67
2023/08/13 10:45:07;;;;;;;5.30;3.10;;;;;;;29.82;45.99;101417.95;109600;1240;71632;-68
2023/08/13 10:47:40;;;;;;;3.60;2.40;;;;;;;30.34;44.83;101418.48;109499;1244;60236;-68
2023/08/13 10:50:32;;;;;;;4.10;3.10;;;;;;;30.92;41.81;101415.13;109572;1239;64848;-69
2023/08/13 10:53:26;;;;;;;4.30;2.90;;;;;;;31.18;41.33;101417.96;109654;1242;62017;-69
2023/08/13 10:55:59;;;;;;;4.00;2.70;;;;;;;31.35;39.89;101414.53;109468;1240;58036;-69
2023/08/13 10:58:31;;;;;;;5.50;2.90;;;;;;;31.33;40.54;101414.23;109676;1242;62835;-69
2023/08/13 11:01:09;;;;;;;4.40;2.80;;;;;;;30.88;40.82;101416.46;109686;1240;72120;-69
2023/08/13 11:03:55;;;;;;;3.30;2.40;;;;;;;31.15;41.44;101413.52;109598;1240;69660;-69
2023/08/13 11:06:27;;;;;;;4.50;3.00;;;;;;;31.40;40.21;101411.30;109717;1241;62159;-70
2023/08/13 11:08:56;;;;;;;3.70;2.90;;;;;;;31.00;40.22;101411.29;109856;1241;57788;-70
2023/08/13 11:11:25;;;;;;;4.70;3.10;;;;;;;31.24;39.96;101400.60;109855;1241;57820;-70
2023/08/13 11:13:54;;;;;;;3.00;2.40;;;;;;;31.74;40.51;101404.64;109767;1240;65343;-71
2023/08/13 11:16:28;;;;;;;5.00;2.60;;;;;;;31.60;39.36;101398.45;109884;1240;72004;-73
2023/08/13 11:18:58;;;;;;;9.70;8.70;;;;;;;31.27;39.47;101393.33;109767;1240;69844;-71
2023/08/13 11:21:27;;;;;;;7.30;3.20;;;;;;;30.93;40.38;101386.44;109836;1242;63521;-72
2023/08/13 11:23:56;;;;;;;5.10;3.10;;;;;;;30.91;40.15;101381.48;109746;1242;60191;-71
2023/08/13 11:26:24;;;;;;;5.00;3.40;;;;;;;31.21;40.31;101383.13;109767;1239;61382;-71